Latest Weather Observations for Tuggeranong

IDN60801

Issued at 2:35 pm EST Thursday 2 October 2014 (issued every 30 minutes, with the page automatically refreshed every 10 minutes)

About weather observations | Map of weather stations | Latest weather observations for NSW | Other Formats
Station Details ID: 070339 Name: TUGGERANONG (ISABELLA PLAINS) AWS Lat: -35.42 Lon: 149.09 Height: 586.7 m
Data from the previous 72 hours. | See also: Recent months at Tuggeranong
Date/Time
EST
Temp
°C
App
Temp
°C
Dew
Point
Rel
Hum
%
Delta-T
°C
Wind Press
QNH
hPa
Press
MSL
hPa
Rain
since 9 am
mm
Dir
 
Spd
km/h
Gust
km/h
Spd
kts
Gust
kts
02/01:00pm 18.8 15.2 6.9 46 6.1 N 15 - 8 - - 1017.7 -
02/12:30pm 17.8 14.1 6.3 47 5.8 N 15 22 8 12 1019.0 1018.2 0.0
02/12:00pm 16.2 12.6 5.2 48 5.4 W 13 22 7 12 1019.8 1019.0 0.0
02/11:00am 14.7 11.3 3.8 48 5.1 NW 11 17 6 9 1020.6 1019.9 0.0
02/10:30am 14.2 11.2 3.9 50 4.9 NNE 9 19 5 10 1021.1 1020.3 0.0
02/10:00am 12.6 9.3 2.7 51 4.5 NNE 9 17 5 9 1021.5 1020.7 0.0
02/09:30am 11.0 7.8 1.0 50 4.3 NNW 7 11 4 6 1021.9 1021.1 0.0
02/09:00am 10.4 7.8 1.0 52 4.0 NNE 4 7 2 4 1022.2 1021.5 0.0
02/08:30am 8.6 5.6 1.1 59 3.2 SW 6 9 3 5 1022.4 1021.7 0.0
02/08:00am 7.1 4.1 1.0 65 2.5 NW 6 9 3 5 1022.4 1021.7 0.0
02/07:30am 5.3 3.0 0.5 71 1.9 SW 2 7 1 4 1022.3 1021.6 0.0
02/07:00am 3.4 1.4 -0.2 77 1.4 CALM 0 0 0 0 1022.4 1021.7 0.0
02/06:30am 1.1 -1.0 -0.5 89 0.6 CALM 0 2 0 1 1022.3 1021.6 0.0
02/06:00am -0.1 -2.3 -1.5 90 0.5 E 0 0 0 0 1022.2 1021.5 0.0
02/05:30am 0.3 -1.8 -1.0 91 0.5 CALM 0 0 0 0 1022.2 1021.5 0.0
02/05:00am 0.3 -1.8 -1.0 91 0.5 CALM 0 0 0 0 1022.0 1021.2 0.0
02/04:30am 0.3 -1.8 -1.1 90 0.5 CALM 0 0 0 0 1021.8 1021.0 0.0
02/04:00am 1.1 -1.3 -0.5 89 0.6 E 2 6 1 3 1021.8 1021.0 0.0
02/03:30am 1.3 -0.7 -0.2 90 0.6 CALM 0 0 0 0 1021.6 1020.8 0.0
02/03:00am 1.1 -1.0 -0.5 89 0.6 CALM 0 0 0 0 1021.8 1021.0 0.0
02/02:30am 1.3 -0.8 -0.8 86 0.8 NE 0 0 0 0 1022.0 1021.2 0.0
02/02:00am 2.2 0.3 0.4 88 0.7 CALM 0 0 0 0 1022.3 1021.6 0.0
02/01:30am 2.1 0.1 -0.2 85 0.9 CALM 0 0 0 0 1022.3 1021.6 0.0
02/01:00am 2.5 0.5 0.1 84 0.9 CALM 0 0 0 0 1022.5 1021.8 0.0
02/12:30am 3.1 1.1 0.2 81 1.1 CALM 0 0 0 0 1022.7 1022.0 0.0
02/12:00am 4.2 2.3 0.7 78 1.4 NNE 0 0 0 0 1022.9 1022.1 0.0
 
Date/Time
EST
Temp
°C
App
Temp
°C
Dew
Point
Rel
Hum
%
Delta-T
°C
Wind Press
QNH
hPa
Press
MSL
hPa
Rain
since 9 am
mm
Dir
 
Spd
km/h
Gust
km/h
Spd
kts
Gust
kts
01/11:30pm 4.8 2.6 0.8 75 1.6 E 2 7 1 4 1022.9 1022.1 0.0
01/11:00pm 5.9 2.4 1.2 72 1.9 E 9 13 5 7 1022.9 1022.1 0.0
01/10:30pm 6.3 3.4 1.2 70 2.1 E 6 9 3 5 1022.6 1021.9 0.0
01/10:00pm 6.7 4.5 1.0 67 2.3 SE 2 7 1 4 1022.6 1021.9 0.0
01/09:30pm 7.3 4.2 1.4 66 2.5 E 7 9 4 5 1022.2 1021.5 0.0
01/09:00pm 7.8 4.7 1.2 63 2.8 ESE 7 9 4 5 1021.9 1021.1 0.0
01/08:30pm 8.7 5.6 1.6 61 3.0 E 7 13 4 7 1021.7 1020.9 0.0
01/08:00pm 9.3 6.1 1.0 56 3.5 ESE 7 11 4 6 1021.6 1020.8 0.0
01/07:30pm 9.9 6.3 0.8 53 3.9 ENE 9 11 5 6 1021.1 1020.3 0.0
01/07:00pm 10.8 7.2 0.8 50 4.3 ENE 9 15 5 8 1020.7 1020.0 0.0
01/06:30pm 12.3 8.2 0.1 43 5.2 NNE 11 17 6 9 1020.2 1019.4 0.0
01/06:00pm 13.1 8.7 0.2 41 5.5 N 13 20 7 11 1019.7 1018.9 0.0
01/05:30pm 14.5 9.9 -0.8 35 6.5 N 13 20 7 11 1019.1 1018.4 0.0
01/05:00pm 15.2 11.1 -0.1 35 6.7 N 11 17 6 9 1019.0 1018.2 0.0
01/04:30pm 15.5 10.5 -1.1 32 7.1 NNE 15 24 8 13 1018.6 1017.8 0.0
01/04:00pm 16.0 11.7 -4.5 24 8.2 N 9 13 5 7 1018.8 1018.0 0.0
01/03:30pm 16.8 12.7 -2.8 26 8.2 WSW 9 15 5 8 1018.3 1017.5 0.0
01/03:00pm 16.6 12.9 -3.0 26 8.1 WSW 7 11 4 6 1018.3 1017.5 0.0
01/02:30pm 16.1 12.4 -2.9 27 7.9 S 7 13 4 7 1018.2 1017.4 0.0
01/02:00pm 16.1 12.3 -3.9 25 8.1 N 7 15 4 8 1018.4 1017.6 0.0
01/01:30pm 15.2 10.6 -4.2 26 7.8 SW 11 17 6 9 1018.6 1017.8 0.0
01/01:00pm 14.8 10.7 -6.7 22 8.1 SSW 7 13 4 7 1018.7 1017.9 0.0
01/12:30pm 14.4 9.9 -7.0 22 8.0 S 9 17 5 9 1018.9 1018.1 0.0
01/12:00pm 14.3 9.5 -6.5 23 7.8 ESE 11 19 6 10 1018.9 1018.1 0.0
01/11:30am 14.1 8.5 -6.1 24 7.7 SSE 15 32 8 17 1018.9 1018.1 0.0
01/11:00am 13.6 7.3 -6.0 25 7.4 SSE 19 28 10 15 1019.1 1018.4 0.0
01/10:30am 12.9 7.3 -6.6 25 7.2 S 15 24 8 13 1019.0 1018.2 0.0
01/10:00am 12.7 7.5 -6.3 26 7.0 SE 13 20 7 11 1018.8 1018.0 0.0
01/09:30am 12.1 7.4 -5.4 29 6.6 SSE 11 20 6 11 1018.6 1018.5 0.0
01/09:00am 11.8 6.3 -5.2 30 6.4 S 15 24 8 13 1018.4 1018.3 0.0
01/08:30am 10.7 5.0 -4.1 35 5.7 SSW 17 26 9 14 1018.4 1018.3 0.0
01/08:00am 9.8 4.4 -4.2 37 5.3 SW 15 20 8 11 1018.0 1017.8 0.0
01/07:30am 8.7 3.1 -3.2 43 4.5 WSW 17 26 9 14 1017.8 1017.6 0.0
01/07:00am 7.8 2.5 -3.4 45 4.2 WSW 15 20 8 11 1017.5 1017.3 0.0
01/06:30am 6.8 2.5 -4.6 44 4.1 SW 9 17 5 9 1017.3 1017.2 0.0
01/06:00am 6.3 1.2 -5.3 43 4.1 WSW 13 19 7 10 1016.7 1016.5 0.0
01/05:30am 6.0 0.9 -5.0 45 3.9 W 13 17 7 9 1015.5 1015.4 0.0
01/05:00am 6.5 1.8 -4.6 45 4.0 WSW 11 19 6 10 1015.1 1014.9 0.0
01/04:30am 7.4 2.5 -3.7 45 4.1 WSW 13 19 7 10 1014.8 1014.6 0.0
01/04:00am 7.6 3.4 -3.6 45 4.2 WSW 9 17 5 9 1014.5 1014.3 0.0
01/03:30am 8.4 2.2 -3.1 44 4.4 WSW 20 33 11 18 1013.6 1013.4 0.0
01/03:00am 8.4 3.0 -4.7 39 4.8 WSW 15 24 8 13 1013.2 1013.0 0.0
01/02:30am 9.3 3.5 -4.6 37 5.2 SW 17 28 9 15 1012.7 1012.5 0.0
01/02:00am 10.9 3.7 -5.1 32 6.0 WSW 24 39 13 21 1011.7 1011.5 0.0
01/01:34am 11.9 4.0 -4.7 31 6.3 WSW 28 46 15 25 1011.0 1010.8 0.0
01/01:30am 12.2 3.6 -4.4 31 6.4 WSW 32 48 17 26 1010.9 1010.6 0.0
01/01:18am 12.5 4.8 -2.9 34 6.2 WSW 28 46 15 25 1010.9 1010.6 0.0
01/01:00am 12.6 5.8 -2.1 36 6.0 WSW 24 35 13 19 1010.9 1010.6 0.0
01/12:30am 13.2 4.5 -0.4 39 5.8 WSW 35 57 19 31 1011.0 1010.8 0.0
01/12:14am 13.7 6.5 2.9 48 5.0 WSW 30 48 16 26 1010.9 1010.6 0.0
01/12:00am 14.1 7.4 3.6 49 4.9 WSW 28 43 15 23 1010.9 1010.6 0.0
 
Date/Time
EST
Temp
°C
App
Temp
°C
Dew
Point
Rel
Hum
%
Delta-T
°C
Wind Press
QNH
hPa
Press
MSL
hPa
Rain
since 9 am
mm
Dir
 
Spd
km/h
Gust
km/h
Spd
kts
Gust
kts
30/11:30pm 15.4 8.7 3.9 46 5.5 WSW 28 44 15 24 1010.1 1009.9 0.0
30/11:06pm 16.3 9.7 4.4 45 5.8 WSW 28 48 15 26 1009.6 1009.4 0.0
30/11:00pm 17.0 11.2 4.3 43 6.2 WSW 24 33 13 18 1009.3 1009.0 0.0
30/10:30pm 18.3 12.2 2.6 35 7.4 WSW 24 39 13 21 1008.6 1008.3 0.0
30/10:00pm 19.2 12.9 1.7 31 8.2 WSW 24 44 13 24 1008.5 1008.2 0.0
30/09:30pm 19.2 13.6 1.2 30 8.4 WSW 20 37 11 20 1008.6 1008.3 0.0
30/09:00pm 19.5 13.9 1.5 30 8.4 WSW 20 39 11 21 1009.1 1008.8 0.0
30/08:30pm 18.8 13.9 1.8 32 8.0 WSW 17 30 9 16 1009.4 1009.1 0.0
30/08:00pm 19.0 13.6 1.5 31 8.2 WSW 19 32 10 17 1009.6 1009.4 0.0
30/07:30pm 18.4 14.2 1.4 32 7.9 WSW 13 22 7 12 1009.6 1009.4 0.0
30/07:00pm 18.7 14.1 1.7 32 8.0 W 15 24 8 13 1009.5 1009.2 0.0
30/06:30pm 19.4 14.5 1.9 31 8.2 W 17 39 9 21 1009.3 1009.0 0.0
30/06:00pm 20.2 14.0 2.1 30 8.6 WSW 24 43 13 23 1009.3 1009.0 0.0
30/05:30pm 20.8 15.2 3.5 32 8.5 WSW 22 33 12 18 1009.2 1008.9 0.0
30/05:00pm 21.5 16.4 4.1 32 8.7 WSW 20 32 11 17 1009.3 1009.0 0.0
30/04:49pm 21.7 15.0 3.4 30 9.0 WSW 28 48 15 26 1009.3 1009.0 0.0
30/04:30pm 22.0 15.7 3.6 30 9.1 WSW 26 43 14 23 1009.4 1009.1 0.0
30/04:03pm 22.4 15.4 4.0 30 9.2 WSW 30 54 16 29 1009.2 1008.9 0.0
30/04:00pm 22.4 15.9 4.9 32 8.9 WSW 28 44 15 24 1009.2 1008.9 0.0
30/03:30pm 22.4 15.3 5.4 33 8.7 WSW 32 50 17 27 1009.4 1009.1 0.0
30/03:21pm 22.5 16.1 5.0 32 8.9 W 28 52 15 28 1009.2 1008.9 0.0
30/03:00pm 22.8 17.3 5.7 33 8.9 WSW 24 39 13 21 1009.4 1009.1 0.0
30/02:30pm 22.7 15.1 5.6 33 8.8 WSW 35 54 19 29 1010.3 1010.0 0.0
30/02:00pm 22.8 15.3 4.3 30 9.4 WSW 33 54 18 29 1010.7 1010.4 0.0
30/01:30pm 22.9 15.2 3.4 28 9.7 WSW 33 54 18 29 1010.7 1010.4 0.0
30/01:00pm 23.0 16.4 4.0 29 9.6 WSW 28 46 15 25 1010.9 1010.6 0.0
30/12:59pm 23.0 16.3 3.5 28 9.7 WSW 28 46 15 25 1011.0 1010.8 0.0
30/12:30pm 23.6 17.4 4.5 29 9.7 WSW 26 39 14 21 1011.2 1011.0 0.0
30/12:00pm 23.1 16.0 3.6 28 9.8 WSW 30 52 16 28 1011.5 1011.3 0.0
30/11:57am 23.2 16.5 3.7 28 9.8 WSW 28 52 15 28 1011.5 1011.3 0.0
30/11:30am 23.3 17.2 4.8 30 9.5 WSW 26 43 14 23 1011.8 1011.6 0.0
30/11:00am 23.0 18.1 5.0 31 9.2 WSW 20 33 11 18 1012.3 1012.0 0.0
30/10:30am 22.2 16.0 4.3 31 9.0 WSW 26 41 14 22 1012.6 1012.4 0.0
30/10:00am 21.5 16.4 6.2 37 8.0 WSW 22 30 12 16 1012.9 1012.7 0.0
30/09:30am 20.6 16.0 6.5 40 7.3 WSW 20 30 11 16 1013.2 1013.0 0.0
30/09:00am 18.1 15.3 8.4 53 5.1 N 13 19 7 10 1013.5 1013.3 0.0
30/08:30am 15.7 13.1 7.7 59 4.1 NNW 11 15 6 8 1013.7 1013.5 0.0
30/08:00am 13.9 11.7 7.7 66 3.2 NW 9 17 5 9 1013.7 1013.5 0.0
30/07:30am 10.8 10.3 7.9 82 1.5 CALM 0 0 0 0 1013.9 1013.6 0.0
30/07:00am 8.0 7.4 7.4 96 0.3 CALM 0 0 0 0 1014.1 1013.9 0.0
30/06:30am 5.3 4.2 4.9 97 0.2 CALM 0 0 0 0 1014.1 1013.9 0.0
30/06:00am 4.6 3.3 4.0 96 0.3 CALM 0 0 0 0 1013.9 1013.6 0.0
30/05:30am 4.0 2.5 2.8 92 0.5 CALM 0 0 0 0 1013.7 1013.5 0.0
30/05:00am 4.9 3.6 3.9 93 0.4 CALM 0 0 0 0 1013.6 1013.4 0.0
30/04:30am 5.3 4.1 4.4 94 0.4 CALM 0 0 0 0 1013.5 1013.3 0.0
30/04:00am 5.3 4.0 4.3 93 0.4 CALM 0 0 0 0 1013.5 1013.3 0.0
30/03:30am 6.2 5.1 5.2 93 0.5 CALM 0 0 0 0 1013.6 1013.4 0.0
30/03:00am 5.6 4.3 4.2 91 0.6 CALM 0 0 0 0 1013.9 1013.6 0.0
30/02:30am 6.2 5.0 4.7 90 0.7 CALM 0 0 0 0 1014.1 1013.9 0.0
30/02:00am 6.9 5.8 5.1 88 0.8 CALM 0 0 0 0 1014.3 1014.1 0.0
30/01:30am 7.0 5.9 5.0 87 0.9 CALM 0 0 0 0 1014.6 1014.4 0.0
30/01:00am 7.5 6.4 5.3 86 1.0 CALM 0 0 0 0 1014.8 1014.6 0.0
30/12:30am 8.2 7.2 5.5 83 1.3 CALM 0 0 0 0 1014.9 1014.7 0.0
30/12:00am 8.7 7.7 5.4 80 1.5 CALM 0 0 0 0 1015.1 1014.9 0.0
 
Date/Time
EST
Temp
°C
App
Temp
°C
Dew
Point
Rel
Hum
%
Delta-T
°C
Wind Press
QNH
hPa
Press
MSL
hPa
Rain
since 9 am
mm
Dir
 
Spd
km/h
Gust
km/h
Spd
kts
Gust
kts
29/11:30pm 8.7 6.5 5.4 80 1.5 E 6 7 3 4 1015.3 1015.1 0.0
29/11:00pm 9.5 8.5 5.5 76 1.9 CALM 0 0 0 0 1015.7 1015.5 0.0
29/10:30pm 9.7 8.7 5.5 75 2.0 CALM 0 0 0 0 1015.8 1015.6 0.0
29/10:00pm 10.2 9.1 5.2 71 2.3 CALM 0 0 0 0 1015.9 1015.7 0.0
29/09:30pm 11.1 8.9 5.4 68 2.7 E 6 9 3 5 1016.0 1015.8 0.0
29/09:00pm 11.6 10.6 5.5 66 2.9 CALM 0 0 0 0 1016.2 1016.0 0.0
29/08:30pm 12.5 11.4 5.0 60 3.6 CALM 0 0 0 0 1016.1 1015.9 0.0
29/08:00pm 13.2 12.1 5.1 58 3.9 CALM 0 0 0 0 1016.1 1015.9 0.0
29/07:30pm 15.8 14.5 4.2 46 5.6 CALM 0 2 0 1 1015.8 1015.6 0.0
29/07:00pm 17.9 14.9 4.1 40 6.7 WNW 9 17 5 9 1015.5 1015.4 0.0
29/06:30pm 19.0 15.5 3.6 36 7.5 W 11 19 6 10 1015.2 1015.0 0.0
29/06:00pm 20.1 15.5 3.8 34 8.0 WSW 17 20 9 11 1014.9 1014.7 0.0
29/05:30pm 21.6 16.2 2.3 28 9.3 WSW 20 33 11 18 1014.6 1014.4 0.0
29/05:00pm 22.5 17.3 3.6 29 9.4 WSW 20 28 11 15 1014.3 1014.1 0.0
29/04:30pm 23.4 18.3 3.9 28 9.8 WSW 20 30 11 16 1014.0 1013.8 0.0
29/04:00pm 23.9 17.7 2.1 24 10.7 WSW 24 35 13 19 1013.7 1013.5 0.0
29/03:30pm 25.0 20.8 3.6 25 10.8 WSW 15 24 8 13 1013.6 1013.4 0.0
29/03:00pm 24.6 18.0 2.1 23 11.1 W 26 41 14 22 1013.6 1013.4 0.0

Other Formats:

Comma delimited format used in spreadsheet applications
http://www.bom.gov.au/fwo/IDN60801/IDN60801.94925.axf

JavaScript Object Notation format (JSON) in row-major order
http://www.bom.gov.au/fwo/IDN60801/IDN60801.94925.json